sensor_id;sensor_type;location;lat;lon;timestamp;pressure;altitude;pressure_sealevel;temperature
72405;BMP280;60395;52.020;113.548;2023-11-21T00:00:13;92835.25;;;-5.88
72405;BMP280;60395;52.020;113.548;2023-11-21T00:03:16;92834.59;;;-5.89
72405;BMP280;60395;52.020;113.548;2023-11-21T00:06:19;92830.06;;;-5.90
72405;BMP280;60395;52.020;113.548;2023-11-21T00:09:23;92835.72;;;-5.92
72405;BMP280;60395;52.020;113.548;2023-11-21T00:12:26;92831.28;;;-5.91
72405;BMP280;60395;52.020;113.548;2023-11-21T00:15:31;92835.81;;;-5.90
72405;BMP280;60395;52.020;113.548;2023-11-21T00:18:35;92832.16;;;-5.87
72405;BMP280;60395;52.020;113.548;2023-11-21T00:21:38;92836.81;;;-5.83
72405;BMP280;60395;52.020;113.548;2023-11-21T00:24:41;92834.47;;;-5.79
72405;BMP280;60395;52.020;113.548;2023-11-21T00:27:45;92841.22;;;-5.72
72405;BMP280;60395;52.020;113.548;2023-11-21T00:30:48;92838.97;;;-5.66
72405;BMP280;60395;52.020;113.548;2023-11-21T00:33:51;92845.59;;;-5.61
72405;BMP280;60395;52.020;113.548;2023-11-21T00:36:54;92854.72;;;-5.58
72405;BMP280;60395;52.020;113.548;2023-11-21T00:39:58;92858.59;;;-5.57
72405;BMP280;60395;52.020;113.548;2023-11-21T00:43:02;92860.59;;;-5.55
72405;BMP280;60395;52.020;113.548;2023-11-21T00:46:07;92860.50;;;-5.57
72405;BMP280;60395;52.020;113.548;2023-11-21T00:49:11;92868.81;;;-5.57
72405;BMP280;60395;52.020;113.548;2023-11-21T00:52:14;92874.19;;;-5.53
72405;BMP280;60395;52.020;113.548;2023-11-21T00:55:18;92879.59;;;-5.47
72405;BMP280;60395;52.020;113.548;2023-11-21T00:58:22;92880.44;;;-5.42
72405;BMP280;60395;52.020;113.548;2023-11-21T01:01:25;92884.00;;;-5.36
72405;BMP280;60395;52.020;113.548;2023-11-21T01:04:28;92889.50;;;-5.28
72405;BMP280;60395;52.020;113.548;2023-11-21T01:07:32;92893.72;;;-5.21
72405;BMP280;60395;52.020;113.548;2023-11-21T01:10:35;92897.97;;;-5.11
72405;BMP280;60395;52.020;113.548;2023-11-21T01:13:39;92896.69;;;-4.99
72405;BMP280;60395;52.020;113.548;2023-11-21T01:16:43;92886.47;;;-4.85
72405;BMP280;60395;52.020;113.548;2023-11-21T01:19:46;92888.25;;;-4.74
72405;BMP280;60395;52.020;113.548;2023-11-21T01:22:50;92883.38;;;-4.70
72405;BMP280;60395;52.020;113.548;2023-11-21T01:25:58;92896.53;;;-4.62
72405;BMP280;60395;52.020;113.548;2023-11-21T01:29:01;92892.19;;;-4.46
72405;BMP280;60395;52.020;113.548;2023-11-21T01:32:04;92894.81;;;-4.30
72405;BMP280;60395;52.020;113.548;2023-11-21T01:35:08;92892.06;;;-4.20
72405;BMP280;60395;52.020;113.548;2023-11-21T01:38:12;92891.47;;;-4.05
72405;BMP280;60395;52.020;113.548;2023-11-21T01:41:16;92895.34;;;-3.90
72405;BMP280;60395;52.020;113.548;2023-11-21T01:44:20;92889.50;;;-3.77
72405;BMP280;60395;52.020;113.548;2023-11-21T01:47:23;92886.00;;;-3.70
72405;BMP280;60395;52.020;113.548;2023-11-21T01:50:27;92903.88;;;-3.56
72405;BMP280;60395;52.020;113.548;2023-11-21T01:53:31;92892.91;;;-3.43
72405;BMP280;60395;52.020;113.548;2023-11-21T01:56:34;92896.88;;;-3.25
72405;BMP280;60395;52.020;113.548;2023-11-21T01:59:38;92900.06;;;-3.10
72405;BMP280;60395;52.020;113.548;2023-11-21T02:02:48;92894.00;;;-3.01
72405;BMP280;60395;52.020;113.548;2023-11-21T02:05:54;92887.78;;;-2.96
72405;BMP280;60395;52.020;113.548;2023-11-21T02:08:58;92890.63;;;-2.90
72405;BMP280;60395;52.020;113.548;2023-11-21T02:12:02;92884.06;;;-2.77
72405;BMP280;60395;52.020;113.548;2023-11-21T02:15:07;92890.75;;;-2.55
72405;BMP280;60395;52.020;113.548;2023-11-21T02:18:17;92890.00;;;-2.24
72405;BMP280;60395;52.020;113.548;2023-11-21T02:21:21;92898.47;;;-2.03
72405;BMP280;60395;52.020;113.548;2023-11-21T02:24:24;92890.09;;;-1.86
72405;BMP280;60395;52.020;113.548;2023-11-21T02:27:28;92896.00;;;-1.66
72405;BMP280;60395;52.020;113.548;2023-11-21T02:30:31;92896.84;;;-1.42
72405;BMP280;60395;52.020;113.548;2023-11-21T02:33:35;92891.59;;;-1.26
72405;BMP280;60395;52.020;113.548;2023-11-21T02:36:38;92898.66;;;-1.27
72405;BMP280;60395;52.020;113.548;2023-11-21T02:39:41;92906.69;;;-1.36
72405;BMP280;60395;52.020;113.548;2023-11-21T02:42:44;92898.25;;;-1.39
72405;BMP280;60395;52.020;113.548;2023-11-21T02:45:48;92898.28;;;-1.37
72405;BMP280;60395;52.020;113.548;2023-11-21T02:48:51;92899.28;;;-1.28
72405;BMP280;60395;52.020;113.548;2023-11-21T02:51:57;92895.84;;;-1.15
72405;BMP280;60395;52.020;113.548;2023-11-21T02:55:02;92899.06;;;-1.14
72405;BMP280;60395;52.020;113.548;2023-11-21T02:58:05;92897.91;;;-1.11
72405;BMP280;60395;52.020;113.548;2023-11-21T03:01:09;92897.66;;;-1.00
72405;BMP280;60395;52.020;113.548;2023-11-21T03:04:13;92898.97;;;-0.79
72405;BMP280;60395;52.020;113.548;2023-11-21T03:07:21;92885.66;;;-0.71
72405;BMP280;60395;52.020;113.548;2023-11-21T03:10:24;92879.44;;;-0.64
72405;BMP280;60395;52.020;113.548;2023-11-21T03:13:28;92873.69;;;-0.63
72405;BMP280;60395;52.020;113.548;2023-11-21T03:16:32;92878.91;;;-0.61
72405;BMP280;60395;52.020;113.548;2023-11-21T03:19:36;92873.28;;;-0.55
72405;BMP280;60395;52.020;113.548;2023-11-21T03:22:39;92862.97;;;-0.55
72405;BMP280;60395;52.020;113.548;2023-11-21T03:25:43;92873.34;;;-0.53
72405;BMP280;60395;52.020;113.548;2023-11-21T03:28:46;92867.00;;;-0.50
72405;BMP280;60395;52.020;113.548;2023-11-21T03:31:49;92864.06;;;-0.41
72405;BMP280;60395;52.020;113.548;2023-11-21T03:34:57;92869.00;;;-0.27
72405;BMP280;60395;52.020;113.548;2023-11-21T03:38:02;92865.41;;;-0.18
72405;BMP280;60395;52.020;113.548;2023-11-21T03:41:05;92867.56;;;-0.10
72405;BMP280;60395;52.020;113.548;2023-11-21T03:44:08;92859.88;;;-0.08
72405;BMP280;60395;52.020;113.548;2023-11-21T03:47:12;92861.19;;;-0.07
72405;BMP280;60395;52.020;113.548;2023-11-21T03:50:15;92853.56;;;-0.03
72405;BMP280;60395;52.020;113.548;2023-11-21T03:53:18;92847.22;;;0.00
72405;BMP280;60395;52.020;113.548;2023-11-21T03:56:22;92849.94;;;0.06
72405;BMP280;60395;52.020;113.548;2023-11-21T03:59:25;92841.78;;;0.14
72405;BMP280;60395;52.020;113.548;2023-11-21T04:02:28;92847.28;;;0.26
72405;BMP280;60395;52.020;113.548;2023-11-21T04:05:34;92835.63;;;0.25
72405;BMP280;60395;52.020;113.548;2023-11-21T04:08:40;92853.53;;;0.42
72405;BMP280;60395;52.020;113.548;2023-11-21T04:11:43;92846.47;;;0.45
72405;BMP280;60395;52.020;113.548;2023-11-21T04:14:48;92847.25;;;0.50
72405;BMP280;60395;52.020;113.548;2023-11-21T04:17:53;92850.44;;;0.48
72405;BMP280;60395;52.020;113.548;2023-11-21T04:20:56;92851.78;;;0.49
72405;BMP280;60395;52.020;113.548;2023-11-21T04:23:59;92856.31;;;0.51
72405;BMP280;60395;52.020;113.548;2023-11-21T04:27:02;92862.22;;;0.53
72405;BMP280;60395;52.020;113.548;2023-11-21T04:30:06;92854.47;;;0.53
72405;BMP280;60395;52.020;113.548;2023-11-21T04:33:10;92864.69;;;0.49
72405;BMP280;60395;52.020;113.548;2023-11-21T04:36:13;92858.72;;;0.44
72405;BMP280;60395;52.020;113.548;2023-11-21T04:39:16;92857.94;;;0.38
72405;BMP280;60395;52.020;113.548;2023-11-21T04:42:23;92861.28;;;0.42
72405;BMP280;60395;52.020;113.548;2023-11-21T04:45:26;92853.56;;;0.44
72405;BMP280;60395;52.020;113.548;2023-11-21T04:48:35;92862.72;;;0.48
72405;BMP280;60395;52.020;113.548;2023-11-21T04:51:48;92857.53;;;0.48
72405;BMP280;60395;52.020;113.548;2023-11-21T04:54:51;92847.63;;;0.40
72405;BMP280;60395;52.020;113.548;2023-11-21T04:57:57;92850.88;;;0.40
72405;BMP280;60395;52.020;113.548;2023-11-21T05:01:00;92856.13;;;0.42
72405;BMP280;60395;52.020;113.548;2023-11-21T05:04:07;92847.75;;;0.44
72405;BMP280;60395;52.020;113.548;2023-11-21T05:07:11;92838.13;;;0.47
72405;BMP280;60395;52.020;113.548;2023-11-21T05:10:15;92841.31;;;0.45
72405;BMP280;60395;52.020;113.548;2023-11-21T05:13:20;92847.13;;;0.46
72405;BMP280;60395;52.020;113.548;2023-11-21T05:16:26;92836.81;;;0.46
72405;BMP280;60395;52.020;113.548;2023-11-21T05:19:32;92853.03;;;0.48
72405;BMP280;60395;52.020;113.548;2023-11-21T05:22:36;92851.22;;;0.53
72405;BMP280;60395;52.020;113.548;2023-11-21T05:25:39;92850.56;;;0.52
72405;BMP280;60395;52.020;113.548;2023-11-21T05:28:44;92852.53;;;0.54
72405;BMP280;60395;52.020;113.548;2023-11-21T05:31:47;92852.28;;;0.43
72405;BMP280;60395;52.020;113.548;2023-11-21T05:34:51;92839.78;;;0.36
72405;BMP280;60395;52.020;113.548;2023-11-21T05:37:55;92837.84;;;0.36
72405;BMP280;60395;52.020;113.548;2023-11-21T05:40:58;92839.56;;;0.28
72405;BMP280;60395;52.020;113.548;2023-11-21T05:44:03;92836.19;;;0.21
72405;BMP280;60395;52.020;113.548;2023-11-21T05:47:07;92839.31;;;0.18
72405;BMP280;60395;52.020;113.548;2023-11-21T05:50:12;92836.78;;;0.20
72405;BMP280;60395;52.020;113.548;2023-11-21T05:53:17;92838.69;;;0.19
72405;BMP280;60395;52.020;113.548;2023-11-21T05:56:20;92834.75;;;0.16
72405;BMP280;60395;52.020;113.548;2023-11-21T05:59:23;92838.81;;;0.23
72405;BMP280;60395;52.020;113.548;2023-11-21T06:02:27;92835.84;;;0.33
72405;BMP280;60395;52.020;113.548;2023-11-21T06:05:30;92834.13;;;0.41
72405;BMP280;60395;52.020;113.548;2023-11-21T06:08:34;92838.84;;;0.49
72405;BMP280;60395;52.020;113.548;2023-11-21T06:11:38;92828.56;;;0.51
72405;BMP280;60395;52.020;113.548;2023-11-21T06:14:42;92826.03;;;0.53
72405;BMP280;60395;52.020;113.548;2023-11-21T06:17:45;92821.47;;;0.52
72405;BMP280;60395;52.020;113.548;2023-11-21T06:20:52;92825.28;;;0.49
72405;BMP280;60395;52.020;113.548;2023-11-21T06:23:55;92820.63;;;0.45
72405;BMP280;60395;52.020;113.548;2023-11-21T06:26:59;92827.84;;;0.49
72405;BMP280;60395;52.020;113.548;2023-11-21T06:30:03;92826.38;;;0.41
72405;BMP280;60395;52.020;113.548;2023-11-21T06:33:07;92823.97;;;0.24
72405;BMP280;60395;52.020;113.548;2023-11-21T06:36:10;92816.38;;;0.06
72405;BMP280;60395;52.020;113.548;2023-11-21T06:39:17;92824.94;;;-0.11
72405;BMP280;60395;52.020;113.548;2023-11-21T06:42:20;92828.38;;;-0.26
72405;BMP280;60395;52.020;113.548;2023-11-21T06:45:23;92828.72;;;-0.36
72405;BMP280;60395;52.020;113.548;2023-11-21T06:48:27;92825.94;;;-0.42
72405;BMP280;60395;52.020;113.548;2023-11-21T06:51:30;92818.09;;;-0.46
72405;BMP280;60395;52.020;113.548;2023-11-21T06:54:33;92803.09;;;-0.52
72405;BMP280;60395;52.020;113.548;2023-11-21T06:57:37;92813.97;;;-0.55
72405;BMP280;60395;52.020;113.548;2023-11-21T07:00:41;92820.97;;;-0.58
72405;BMP280;60395;52.020;113.548;2023-11-21T07:03:49;92815.81;;;-0.58
72405;BMP280;60395;52.020;113.548;2023-11-21T07:06:56;92815.75;;;-0.60
72405;BMP280;60395;52.020;113.548;2023-11-21T07:09:59;92820.06;;;-0.66
72405;BMP280;60395;52.020;113.548;2023-11-21T07:13:05;92821.84;;;-0.71
72405;BMP280;60395;52.020;113.548;2023-11-21T07:16:09;92818.44;;;-0.77
72405;BMP280;60395;52.020;113.548;2023-11-21T07:19:13;92817.59;;;-0.84
72405;BMP280;60395;52.020;113.548;2023-11-21T07:22:17;92809.53;;;-0.94
72405;BMP280;60395;52.020;113.548;2023-11-21T07:25:24;92810.47;;;-1.05
72405;BMP280;60395;52.020;113.548;2023-11-21T07:28:27;92802.41;;;-1.15
72405;BMP280;60395;52.020;113.548;2023-11-21T07:31:30;92807.44;;;-1.19
72405;BMP280;60395;52.020;113.548;2023-11-21T07:34:37;92808.63;;;-1.22
72405;BMP280;60395;52.020;113.548;2023-11-21T07:37:40;92813.06;;;-1.25
72405;BMP280;60395;52.020;113.548;2023-11-21T07:40:43;92808.47;;;-1.27
72405;BMP280;60395;52.020;113.548;2023-11-21T07:43:47;92809.81;;;-1.26
72405;BMP280;60395;52.020;113.548;2023-11-21T07:46:51;92812.00;;;-1.18
72405;BMP280;60395;52.020;113.548;2023-11-21T07:49:54;92807.38;;;-1.21
72405;BMP280;60395;52.020;113.548;2023-11-21T07:52:58;92812.19;;;-1.32
72405;BMP280;60395;52.020;113.548;2023-11-21T07:56:06;92809.22;;;-1.44
72405;BMP280;60395;52.020;113.548;2023-11-21T07:59:13;92810.13;;;-1.55
72405;BMP280;60395;52.020;113.548;2023-11-21T08:02:17;92812.28;;;-1.67
72405;BMP280;60395;52.020;113.548;2023-11-21T08:05:20;92814.50;;;-1.77
72405;BMP280;60395;52.020;113.548;2023-11-21T08:08:33;92815.31;;;-1.90
72405;BMP280;60395;52.020;113.548;2023-11-21T08:11:36;92817.84;;;-2.10
72405;BMP280;60395;52.020;113.548;2023-11-21T08:14:41;92814.44;;;-2.32
72405;BMP280;60395;52.020;113.548;2023-11-21T08:17:46;92819.50;;;-2.52
72405;BMP280;60395;52.020;113.548;2023-11-21T08:20:50;92813.56;;;-2.72
72405;BMP280;60395;52.020;113.548;2023-11-21T08:23:54;92821.72;;;-2.94
72405;BMP280;60395;52.020;113.548;2023-11-21T08:26:57;92823.81;;;-3.06
72405;BMP280;60395;52.020;113.548;2023-11-21T08:30:02;92825.41;;;-3.14
72405;BMP280;60395;52.020;113.548;2023-11-21T08:33:06;92814.53;;;-3.29
72405;BMP280;60395;52.020;113.548;2023-11-21T08:36:09;92825.97;;;-3.47
72405;BMP280;60395;52.020;113.548;2023-11-21T08:39:14;92831.91;;;-3.58
72405;BMP280;60395;52.020;113.548;2023-11-21T08:42:19;92828.88;;;-3.71
72405;BMP280;60395;52.020;113.548;2023-11-21T08:45:22;92827.66;;;-3.83
72405;BMP280;60395;52.020;113.548;2023-11-21T08:48:26;92823.88;;;-3.96
72405;BMP280;60395;52.020;113.548;2023-11-21T08:51:31;92826.28;;;-4.00
72405;BMP280;60395;52.020;113.548;2023-11-21T08:54:34;92835.06;;;-4.05
72405;BMP280;60395;52.020;113.548;2023-11-21T08:57:38;92835.72;;;-4.05
72405;BMP280;60395;52.020;113.548;2023-11-21T09:00:41;92834.38;;;-4.06
72405;BMP280;60395;52.020;113.548;2023-11-21T09:03:44;92834.88;;;-4.09
72405;BMP280;60395;52.020;113.548;2023-11-21T09:06:48;92843.13;;;-4.11
72405;BMP280;60395;52.020;113.548;2023-11-21T09:09:51;92834.50;;;-4.17
72405;BMP280;60395;52.020;113.548;2023-11-21T09:12:54;92849.63;;;-4.23
72405;BMP280;60395;52.020;113.548;2023-11-21T09:15:58;92845.28;;;-4.34
72405;BMP280;60395;52.020;113.548;2023-11-21T09:19:01;92851.44;;;-4.39
72405;BMP280;60395;52.020;113.548;2023-11-21T09:22:07;92851.16;;;-4.46
72405;BMP280;60395;52.020;113.548;2023-11-21T09:25:10;92853.06;;;-4.46
72405;BMP280;60395;52.020;113.548;2023-11-21T09:28:13;92850.50;;;-4.46
72405;BMP280;60395;52.020;113.548;2023-11-21T09:31:16;92857.53;;;-4.47
72405;BMP280;60395;52.020;113.548;2023-11-21T09:34:21;92851.00;;;-4.50
72405;BMP280;60395;52.020;113.548;2023-11-21T09:37:24;92859.84;;;-4.53
72405;BMP280;60395;52.020;113.548;2023-11-21T09:40:30;92856.69;;;-4.51
72405;BMP280;60395;52.020;113.548;2023-11-21T09:43:34;92853.66;;;-4.48
72405;BMP280;60395;52.020;113.548;2023-11-21T09:46:42;92852.50;;;-4.45
72405;BMP280;60395;52.020;113.548;2023-11-21T09:49:47;92857.91;;;-4.38
72405;BMP280;60395;52.020;113.548;2023-11-21T09:53:17;92859.22;;;-4.37
72405;BMP280;60395;52.020;113.548;2023-11-21T09:56:21;92858.94;;;-4.44
72405;BMP280;60395;52.020;113.548;2023-11-21T09:59:30;92862.19;;;-4.43
72405;BMP280;60395;52.020;113.548;2023-11-21T10:02:35;92862.75;;;-4.45
72405;BMP280;60395;52.020;113.548;2023-11-21T10:05:44;92858.19;;;-4.46
72405;BMP280;60395;52.020;113.548;2023-11-21T10:08:54;92861.41;;;-4.46
72405;BMP280;60395;52.020;113.548;2023-11-21T10:11:59;92862.09;;;-4.45
72405;BMP280;60395;52.020;113.548;2023-11-21T10:15:07;92873.56;;;-4.46
72405;BMP280;60395;52.020;113.548;2023-11-21T10:18:11;92876.13;;;-4.46
72405;BMP280;60395;52.020;113.548;2023-11-21T10:21:18;92884.31;;;-4.50
72405;BMP280;60395;52.020;113.548;2023-11-21T10:24:21;92890.66;;;-4.51
72405;BMP280;60395;52.020;113.548;2023-11-21T10:27:27;92884.88;;;-4.51
72405;BMP280;60395;52.020;113.548;2023-11-21T10:30:38;92882.22;;;-4.53
72405;BMP280;60395;52.020;113.548;2023-11-21T10:33:44;92877.84;;;-4.64
72405;BMP280;60395;52.020;113.548;2023-11-21T10:36:47;92880.88;;;-4.68
72405;BMP280;60395;52.020;113.548;2023-11-21T10:39:51;92882.69;;;-4.70
72405;BMP280;60395;52.020;113.548;2023-11-21T10:42:55;92883.63;;;-4.77
72405;BMP280;60395;52.020;113.548;2023-11-21T10:46:09;92880.78;;;-4.84
72405;BMP280;60395;52.020;113.548;2023-11-21T10:49:12;92868.28;;;-4.91
72405;BMP280;60395;52.020;113.548;2023-11-21T10:52:15;92872.97;;;-4.99
72405;BMP280;60395;52.020;113.548;2023-11-21T10:55:21;92877.59;;;-5.09
72405;BMP280;60395;52.020;113.548;2023-11-21T10:58:26;92875.97;;;-5.16
72405;BMP280;60395;52.020;113.548;2023-11-21T11:01:30;92884.47;;;-5.26
72405;BMP280;60395;52.020;113.548;2023-11-21T11:04:35;92880.28;;;-5.33
72405;BMP280;60395;52.020;113.548;2023-11-21T11:07:43;92888.34;;;-5.38
72405;BMP280;60395;52.020;113.548;2023-11-21T11:10:50;92892.47;;;-5.45
72405;BMP280;60395;52.020;113.548;2023-11-21T11:13:54;92888.88;;;-5.53
72405;BMP280;60395;52.020;113.548;2023-11-21T11:16:58;92889.88;;;-5.59
72405;BMP280;60395;52.020;113.548;2023-11-21T11:20:04;92891.66;;;-5.61
72405;BMP280;60395;52.020;113.548;2023-11-21T11:23:38;92906.25;;;-5.64
72405;BMP280;60395;52.020;113.548;2023-11-21T11:26:56;92898.28;;;-5.70
72405;BMP280;60395;52.020;113.548;2023-11-21T11:37:05;92917.03;;;-5.65
72405;BMP280;60395;52.020;113.548;2023-11-21T11:40:13;92926.06;;;-5.64
72405;BMP280;60395;52.020;113.548;2023-11-21T11:43:26;92923.06;;;-5.72
72405;BMP280;60395;52.020;113.548;2023-11-21T11:46:43;92935.16;;;-5.73
72405;BMP280;60395;52.020;113.548;2023-11-21T11:50:10;92940.75;;;-5.76
72405;BMP280;60395;52.020;113.548;2023-11-21T11:53:21;92934.97;;;-5.77
72405;BMP280;60395;52.020;113.548;2023-11-21T11:56:30;92937.41;;;-5.79
72405;BMP280;60395;52.020;113.548;2023-11-21T12:00:09;92942.66;;;-5.77
72405;BMP280;60395;52.020;113.548;2023-11-21T12:03:19;92943.09;;;-5.69
72405;BMP280;60395;52.020;113.548;2023-11-21T12:06:33;92944.72;;;-5.62
72405;BMP280;60395;52.020;113.548;2023-11-21T12:09:37;92943.94;;;-5.52
72405;BMP280;60395;52.020;113.548;2023-11-21T12:16:04;92946.31;;;-5.43
72405;BMP280;60395;52.020;113.548;2023-11-21T12:19:08;92940.66;;;-5.41
72405;BMP280;60395;52.020;113.548;2023-11-21T12:22:11;92947.41;;;-5.34
72405;BMP280;60395;52.020;113.548;2023-11-21T12:25:16;92952.94;;;-5.26
72405;BMP280;60395;52.020;113.548;2023-11-21T12:28:21;92961.59;;;-5.19
72405;BMP280;60395;52.020;113.548;2023-11-21T12:31:25;92950.41;;;-5.12
72405;BMP280;60395;52.020;113.548;2023-11-21T12:34:29;92950.94;;;-5.02
72405;BMP280;60395;52.020;113.548;2023-11-21T12:37:33;92947.53;;;-4.93
72405;BMP280;60395;52.020;113.548;2023-11-21T12:40:37;92953.66;;;-4.87
72405;BMP280;60395;52.020;113.548;2023-11-21T12:43:40;92948.72;;;-4.83
72405;BMP280;60395;52.020;113.548;2023-11-21T12:46:44;92958.41;;;-4.81
72405;BMP280;60395;52.020;113.548;2023-11-21T12:49:48;92962.28;;;-4.80
72405;BMP280;60395;52.020;113.548;2023-11-21T12:52:51;92957.22;;;-4.92
72405;BMP280;60395;52.020;113.548;2023-11-21T12:55:55;92964.53;;;-5.11
72405;BMP280;60395;52.020;113.548;2023-11-21T12:59:01;92969.78;;;-5.35
72405;BMP280;60395;52.020;113.548;2023-11-21T13:02:08;92971.41;;;-5.53
72405;BMP280;60395;52.020;113.548;2023-11-21T13:05:13;92969.97;;;-5.68
72405;BMP280;60395;52.020;113.548;2023-11-21T13:08:26;92972.59;;;-5.79
72405;BMP280;60395;52.020;113.548;2023-11-21T13:11:34;92964.00;;;-5.72
72405;BMP280;60395;52.020;113.548;2023-11-21T13:14:42;92959.72;;;-5.56
72405;BMP280;60395;52.020;113.548;2023-11-21T13:17:46;92966.94;;;-5.41
72405;BMP280;60395;52.020;113.548;2023-11-21T13:20:49;92970.53;;;-5.32
72405;BMP280;60395;52.020;113.548;2023-11-21T13:23:53;92967.22;;;-5.35
72405;BMP280;60395;52.020;113.548;2023-11-21T13:26:57;92973.13;;;-5.44
72405;BMP280;60395;52.020;113.548;2023-11-21T13:30:00;92974.53;;;-5.66
72405;BMP280;60395;52.020;113.548;2023-11-21T13:33:04;92973.53;;;-5.73
72405;BMP280;60395;52.020;113.548;2023-11-21T13:36:10;92984.59;;;-5.82
72405;BMP280;60395;52.020;113.548;2023-11-21T13:39:14;92987.16;;;-5.93
72405;BMP280;60395;52.020;113.548;2023-11-21T13:42:18;92985.50;;;-6.01
72405;BMP280;60395;52.020;113.548;2023-11-21T13:45:22;92986.16;;;-6.00
72405;BMP280;60395;52.020;113.548;2023-11-21T13:48:26;92995.06;;;-6.01
72405;BMP280;60395;52.020;113.548;2023-11-21T13:51:59;92983.84;;;-5.96
72405;BMP280;60395;52.020;113.548;2023-11-21T13:55:05;92988.28;;;-5.85
72405;BMP280;60395;52.020;113.548;2023-11-21T13:58:14;92984.22;;;-5.76
72405;BMP280;60395;52.020;113.548;2023-11-21T14:01:26;92972.88;;;-5.73
72405;BMP280;60395;52.020;113.548;2023-11-21T14:04:32;92979.47;;;-5.70
72405;BMP280;60395;52.020;113.548;2023-11-21T14:07:36;92984.47;;;-5.72
72405;BMP280;60395;52.020;113.548;2023-11-21T14:10:39;92978.78;;;-5.71
72405;BMP280;60395;52.020;113.548;2023-11-21T14:13:53;92980.31;;;-5.66
72405;BMP280;60395;52.020;113.548;2023-11-21T14:16:57;92986.97;;;-5.61
72405;BMP280;60395;52.020;113.548;2023-11-21T14:20:01;92988.19;;;-5.62
72405;BMP280;60395;52.020;113.548;2023-11-21T14:23:08;92990.31;;;-5.58
72405;BMP280;60395;52.020;113.548;2023-11-21T14:26:12;92993.44;;;-5.60
72405;BMP280;60395;52.020;113.548;2023-11-21T14:29:20;92991.78;;;-5.67
72405;BMP280;60395;52.020;113.548;2023-11-21T14:32:23;92998.59;;;-5.71
72405;BMP280;60395;52.020;113.548;2023-11-21T14:35:28;92998.16;;;-5.79
72405;BMP280;60395;52.020;113.548;2023-11-21T14:38:35;92990.50;;;-5.91
72405;BMP280;60395;52.020;113.548;2023-11-21T14:41:40;92988.06;;;-6.01
72405;BMP280;60395;52.020;113.548;2023-11-21T14:44:44;92991.84;;;-6.02
72405;BMP280;60395;52.020;113.548;2023-11-21T14:47:47;92984.94;;;-5.99
72405;BMP280;60395;52.020;113.548;2023-11-21T14:51:09;92987.69;;;-5.95
72405;BMP280;60395;52.020;113.548;2023-11-21T14:54:18;92995.59;;;-5.91
72405;BMP280;60395;52.020;113.548;2023-11-21T14:57:30;92990.03;;;-5.87
72405;BMP280;60395;52.020;113.548;2023-11-21T15:00:35;92991.38;;;-5.86
72405;BMP280;60395;52.020;113.548;2023-11-21T15:03:39;92991.47;;;-5.84
72405;BMP280;60395;52.020;113.548;2023-11-21T15:06:53;92993.47;;;-5.83
72405;BMP280;60395;52.020;113.548;2023-11-21T15:10:00;92992.25;;;-5.82
72405;BMP280;60395;52.020;113.548;2023-11-21T15:13:03;92995.84;;;-5.87
72405;BMP280;60395;52.020;113.548;2023-11-21T15:16:07;92984.91;;;-5.87
72405;BMP280;60395;52.020;113.548;2023-11-21T15:19:14;92987.25;;;-5.91
72405;BMP280;60395;52.020;113.548;2023-11-21T15:22:21;92994.72;;;-5.96
72405;BMP280;60395;52.020;113.548;2023-11-21T15:25:25;93002.97;;;-5.97
72405;BMP280;60395;52.020;113.548;2023-11-21T15:28:28;92994.72;;;-5.96
72405;BMP280;60395;52.020;113.548;2023-11-21T15:31:31;92996.03;;;-5.94
72405;BMP280;60395;52.020;113.548;2023-11-21T15:34:36;92997.38;;;-5.93
72405;BMP280;60395;52.020;113.548;2023-11-21T15:37:39;92997.03;;;-5.88
72405;BMP280;60395;52.020;113.548;2023-11-21T15:40:42;92993.72;;;-5.90
72405;BMP280;60395;52.020;113.548;2023-11-21T15:43:46;93005.06;;;-5.93
72405;BMP280;60395;52.020;113.548;2023-11-21T15:46:55;92998.03;;;-5.93
72405;BMP280;60395;52.020;113.548;2023-11-21T15:49:58;92999.38;;;-5.92
72405;BMP280;60395;52.020;113.548;2023-11-21T15:53:02;93005.16;;;-5.91
72405;BMP280;60395;52.020;113.548;2023-11-21T15:56:09;92990.84;;;-5.97
72405;BMP280;60395;52.020;113.548;2023-11-21T15:59:15;93000.72;;;-6.03
72405;BMP280;60395;52.020;113.548;2023-11-21T16:02:21;93001.81;;;-6.06
72405;BMP280;60395;52.020;113.548;2023-11-21T16:05:25;93000.28;;;-6.11
72405;BMP280;60395;52.020;113.548;2023-11-21T16:08:28;93002.63;;;-6.15
72405;BMP280;60395;52.020;113.548;2023-11-21T16:11:32;93010.06;;;-6.19
72405;BMP280;60395;52.020;113.548;2023-11-21T16:14:39;93010.50;;;-6.22
72405;BMP280;60395;52.020;113.548;2023-11-21T16:17:48;93014.50;;;-6.19
72405;BMP280;60395;52.020;113.548;2023-11-21T16:20:51;93011.50;;;-6.16
72405;BMP280;60395;52.020;113.548;2023-11-21T16:23:54;93004.72;;;-6.11
72405;BMP280;60395;52.020;113.548;2023-11-21T16:26:59;93004.06;;;-6.12
72405;BMP280;60395;52.020;113.548;2023-11-21T16:30:04;93006.94;;;-6.06
72405;BMP280;60395;52.020;113.548;2023-11-21T16:33:08;93010.16;;;-6.17
72405;BMP280;60395;52.020;113.548;2023-11-21T16:36:11;93002.38;;;-6.30
72405;BMP280;60395;52.020;113.548;2023-11-21T16:39:15;93005.72;;;-6.40
72405;BMP280;60395;52.020;113.548;2023-11-21T16:42:19;92999.34;;;-6.50
72405;BMP280;60395;52.020;113.548;2023-11-21T16:45:24;93004.47;;;-6.50
72405;BMP280;60395;52.020;113.548;2023-11-21T16:48:27;93003.34;;;-6.59
72405;BMP280;60395;52.020;113.548;2023-11-21T16:51:30;93005.22;;;-6.59
72405;BMP280;60395;52.020;113.548;2023-11-21T16:54:34;93008.44;;;-6.59
72405;BMP280;60395;52.020;113.548;2023-11-21T16:57:37;93001.88;;;-6.62
72405;BMP280;60395;52.020;113.548;2023-11-21T17:00:41;93010.97;;;-6.71
72405;BMP280;60395;52.020;113.548;2023-11-21T17:03:45;93020.19;;;-6.77
72405;BMP280;60395;52.020;113.548;2023-11-21T17:06:48;93019.47;;;-6.89
72405;BMP280;60395;52.020;113.548;2023-11-21T17:09:52;93020.09;;;-7.00
72405;BMP280;60395;52.020;113.548;2023-11-21T17:12:55;93019.09;;;-7.07
72405;BMP280;60395;52.020;113.548;2023-11-21T17:15:58;93027.81;;;-7.10
72405;BMP280;60395;52.020;113.548;2023-11-21T17:19:02;93022.72;;;-7.10
72405;BMP280;60395;52.020;113.548;2023-11-21T17:22:07;93027.16;;;-7.11
72405;BMP280;60395;52.020;113.548;2023-11-21T17:25:10;93030.28;;;-7.12
72405;BMP280;60395;52.020;113.548;2023-11-21T17:28:13;93035.94;;;-7.14